Main page
METAR-TAF:

METAR-TAF

Airports :

Ingolstadt, Germany

Ingolstadt Manching Airport

latitude: 48-43N, longitude: 011-32E, elevation: 367 m

Current weather observation

The report was made 27 minutes ago, at 01:20 UTC
Wind 1 kt from variable directions
Temperature 6°C
Humidity 93%
Pressure 1020 hPa
Visibility: 0100 m

METAR: ETSI 260120Z AUTO VRB01KT 0100 // ////// 06/05 Q1020 ///

Time: 03:47 (01:47 UTC)

Forecast

The report was made 12 hours and 32 minutes ago, at 13:15 UTC
Forecast valid from 25 at 14 UTC to 25 at 23 UTC
Wind 3 kt from variable directions
Visibility: 1420 m
Scattered clouds at a height of 2000 ft
Broken clouds at a height of 22000 ft

TAF: ETSI 251315Z 2514/2523 VRB03KT 9999 NSW SCT020 BKN220 CANCEL 1420

Weather observations and forecasts of more than 4000 airports (METAR and TAF reports).

The available stations are represented by yellow and red dots on the map.

Hover mouse over dot to see the name of the station.

Then click to see weather observations and forecasts.

To change the map : click on the green buttons with a black cross to zoom in, on the green button with a dash to zoom out, or on the green arrows for adjacent maps.


METAR-TAF: